This is the latest recevied weather packets stored in our database for station/object BMCB-15. If no packets are shown the sender has not sent any weather packets the latest 10 day(s).
| Time | Temp. | Humidity | Pressure | Rain* | Wind** | Luminosity | Snow |
|---|---|---|---|---|---|---|---|
| 1777475442 | 19.44° C | 30% | 1024.7 hPa | 0 mm | - | 558 W/m² | - |
| 1777469436 | 18.89° C | 32% | 1025.2 hPa | 0 mm | - | 740 W/m² | - |
| 1777466438 | 18.33° C | 35% | 1025.3 hPa | 0 mm | - | 790 W/m² | - |
| 1777465239 | 17.78° C | 36% | 1025.4 hPa | 0 mm | - | 790 W/m² | - |
| 1777461039 | 16.67° C | 38% | 1025.7 hPa | 0 mm | - | 786 W/m² | - |
| 1777460438 | 16.11° C | 38% | 1025.7 hPa | 0 mm | - | 776 W/m² | - |
| 1777453839 | 14.44° C | 44% | 1025.9 hPa | 0 mm | - | 618 W/m² | - |
| 1777446639 | 10.56° C | 51% | 1025.8 hPa | 0 mm | - | 316 W/m² | - |
| 1777431036 | 8.89° C | 55% | 1024.6 hPa | 0 mm | - | 0 W/m² | - |
| 1777430437 | 8.89° C | 54% | 1024.5 hPa | 0 mm | - | 0 W/m² | - |
| 1777424438 | 10° C | 57% | 1024.2 hPa | 0 mm | - | 0 W/m² | - |
| 1777423238 | 10° C | 57% | 1024.2 hPa | 0 mm | - | 0 W/m² | - |
| 1777420240 | 10.56° C | 56% | 1024.4 hPa | 0 mm | - | 0 W/m² | - |
| 1777414241 | 12.22° C | 53% | 1023.7 hPa | 0 mm | - | 0 W/m² | - |
| 1777413045 | 12.78° C | 52% | 1023.7 hPa | 0 mm | - | 0 W/m² | - |
| 1777405844 | 13.89° C | 49% | 1022.8 hPa | 0 mm | - | 0 W/m² | - |
| 1777404645 | 15° C | 48% | 1022.5 hPa | 0 mm | - | 0 W/m² | - |
| 1777404042 | 15° C | 47% | 1022.3 hPa | 0 mm | - | 0 W/m² | - |
| 1777402247 | 16.11° C | 44% | 1021.8 hPa | 0 mm | - | 6 W/m² | - |
| 1777399243 | 17.78° C | 41% | 1021.3 hPa | 0 mm | - | 38 W/m² | - |
| 1777396242 | 18.33° C | 40% | 1020.9 hPa | 0 mm | - | 74 W/m² | - |
| 1777390842 | 19.44° C | 41% | 1020.6 hPa | 0 mm | - | 452 W/m² | - |
| 1777389639 | 19.44° C | 41% | 1020.7 hPa | 0 mm | - | 506 W/m² | - |
| 1777377640 | 17.22° C | 47% | 1021.7 hPa | 0 mm | - | 784 W/m² | - |
| 1777376438 | 16.67° C | 48% | 1021.9 hPa | 0 mm | - | 782 W/m² | - |
* Rain latest hour (hover to see other rain measurements)
** Current wind speed in m/s (hover to see current wind gust speed)